sensor_id;sensor_type;location;lat;lon;timestamp;P1;durP1;ratioP1;P2;durP2;ratioP2
4885;SDS011;2457;51.788;6.136;2022-08-19T00:00:53;9.70;;;6.60;;
4885;SDS011;2457;51.788;6.136;2022-08-19T00:03:20;9.87;;;6.57;;
4885;SDS011;2457;51.788;6.136;2022-08-19T00:05:47;10.07;;;6.63;;
4885;SDS011;2457;51.788;6.136;2022-08-19T00:08:14;8.27;;;5.73;;
4885;SDS011;2457;51.788;6.136;2022-08-19T00:10:42;12.83;;;6.47;;
4885;SDS011;2457;51.788;6.136;2022-08-19T00:13:09;10.83;;;6.63;;
4885;SDS011;2457;51.788;6.136;2022-08-19T00:15:36;9.60;;;6.57;;
4885;SDS011;2457;51.788;6.136;2022-08-19T00:18:04;11.40;;;6.10;;
4885;SDS011;2457;51.788;6.136;2022-08-19T00:20:31;12.43;;;6.83;;
4885;SDS011;2457;51.788;6.136;2022-08-19T00:22:58;10.60;;;6.87;;
4885;SDS011;2457;51.788;6.136;2022-08-19T00:25:25;9.50;;;6.70;;
4885;SDS011;2457;51.788;6.136;2022-08-19T00:27:53;11.77;;;6.57;;
4885;SDS011;2457;51.788;6.136;2022-08-19T00:30:20;11.57;;;7.20;;
4885;SDS011;2457;51.788;6.136;2022-08-19T00:32:47;10.70;;;6.57;;
4885;SDS011;2457;51.788;6.136;2022-08-19T00:35:15;11.60;;;7.70;;
4885;SDS011;2457;51.788;6.136;2022-08-19T00:37:43;11.20;;;6.70;;
4885;SDS011;2457;51.788;6.136;2022-08-19T00:40:11;10.20;;;7.07;;
4885;SDS011;2457;51.788;6.136;2022-08-19T00:42:39;12.70;;;7.40;;
4885;SDS011;2457;51.788;6.136;2022-08-19T00:45:12;16.10;;;7.67;;
4885;SDS011;2457;51.788;6.136;2022-08-19T00:47:35;12.03;;;6.80;;
4885;SDS011;2457;51.788;6.136;2022-08-19T00:50:02;13.00;;;7.37;;
4885;SDS011;2457;51.788;6.136;2022-08-19T00:52:32;11.17;;;7.93;;
4885;SDS011;2457;51.788;6.136;2022-08-19T00:54:59;10.67;;;7.10;;
4885;SDS011;2457;51.788;6.136;2022-08-19T00:57:28;10.60;;;6.87;;
4885;SDS011;2457;51.788;6.136;2022-08-19T00:59:56;12.30;;;7.93;;
4885;SDS011;2457;51.788;6.136;2022-08-19T01:02:25;10.80;;;7.30;;
4885;SDS011;2457;51.788;6.136;2022-08-19T01:04:53;15.47;;;7.83;;
4885;SDS011;2457;51.788;6.136;2022-08-19T01:07:21;14.60;;;8.70;;
4885;SDS011;2457;51.788;6.136;2022-08-19T01:09:49;13.60;;;7.63;;
4885;SDS011;2457;51.788;6.136;2022-08-19T01:12:16;11.90;;;7.87;;
4885;SDS011;2457;51.788;6.136;2022-08-19T01:14:43;11.60;;;7.53;;
4885;SDS011;2457;51.788;6.136;2022-08-19T01:17:12;12.00;;;7.80;;
4885;SDS011;2457;51.788;6.136;2022-08-19T01:19:40;13.80;;;9.17;;
4885;SDS011;2457;51.788;6.136;2022-08-19T01:22:19;12.50;;;8.40;;
4885;SDS011;2457;51.788;6.136;2022-08-19T01:24:45;11.93;;;8.60;;
4885;SDS011;2457;51.788;6.136;2022-08-19T01:27:13;10.97;;;7.60;;
4885;SDS011;2457;51.788;6.136;2022-08-19T01:29:42;13.20;;;8.50;;
4885;SDS011;2457;51.788;6.136;2022-08-19T01:32:12;12.20;;;7.80;;
4885;SDS011;2457;51.788;6.136;2022-08-19T01:34:41;13.13;;;7.70;;
4885;SDS011;2457;51.788;6.136;2022-08-19T01:37:10;11.93;;;7.37;;
4885;SDS011;2457;51.788;6.136;2022-08-19T01:39:38;12.77;;;7.87;;
4885;SDS011;2457;51.788;6.136;2022-08-19T01:42:06;12.90;;;7.80;;
4885;SDS011;2457;51.788;6.136;2022-08-19T01:44:35;12.33;;;8.30;;
4885;SDS011;2457;51.788;6.136;2022-08-19T01:47:02;12.27;;;7.47;;
4885;SDS011;2457;51.788;6.136;2022-08-19T01:49:30;10.67;;;7.80;;
4885;SDS011;2457;51.788;6.136;2022-08-19T01:51:58;12.60;;;8.20;;
4885;SDS011;2457;51.788;6.136;2022-08-19T01:54:26;12.43;;;7.87;;
4885;SDS011;2457;51.788;6.136;2022-08-19T01:56:55;11.80;;;6.83;;
4885;SDS011;2457;51.788;6.136;2022-08-19T01:59:22;12.97;;;8.37;;
4885;SDS011;2457;51.788;6.136;2022-08-19T02:01:50;11.57;;;8.17;;
4885;SDS011;2457;51.788;6.136;2022-08-19T02:04:17;12.20;;;8.23;;
4885;SDS011;2457;51.788;6.136;2022-08-19T02:06:45;11.97;;;7.30;;
4885;SDS011;2457;51.788;6.136;2022-08-19T02:09:12;13.80;;;8.10;;
4885;SDS011;2457;51.788;6.136;2022-08-19T02:11:40;12.07;;;8.13;;
4885;SDS011;2457;51.788;6.136;2022-08-19T02:14:08;12.37;;;7.63;;
4885;SDS011;2457;51.788;6.136;2022-08-19T02:16:35;10.73;;;7.40;;
4885;SDS011;2457;51.788;6.136;2022-08-19T02:19:04;12.43;;;9.00;;
4885;SDS011;2457;51.788;6.136;2022-08-19T02:21:32;14.20;;;9.23;;
4885;SDS011;2457;51.788;6.136;2022-08-19T02:23:59;13.67;;;8.40;;
4885;SDS011;2457;51.788;6.136;2022-08-19T02:26:27;12.40;;;7.93;;
4885;SDS011;2457;51.788;6.136;2022-08-19T02:28:54;12.10;;;8.10;;
4885;SDS011;2457;51.788;6.136;2022-08-19T02:31:23;12.20;;;8.30;;
4885;SDS011;2457;51.788;6.136;2022-08-19T02:33:51;13.53;;;9.03;;
4885;SDS011;2457;51.788;6.136;2022-08-19T02:36:18;12.15;;;8.25;;
4885;SDS011;2457;51.788;6.136;2022-08-19T02:38:46;15.43;;;9.83;;
4885;SDS011;2457;51.788;6.136;2022-08-19T02:41:17;13.03;;;8.53;;
4885;SDS011;2457;51.788;6.136;2022-08-19T02:43:46;11.40;;;8.00;;
4885;SDS011;2457;51.788;6.136;2022-08-19T02:46:21;14.20;;;9.50;;
4885;SDS011;2457;51.788;6.136;2022-08-19T02:48:49;12.50;;;8.80;;
4885;SDS011;2457;51.788;6.136;2022-08-19T02:51:21;13.73;;;8.73;;
4885;SDS011;2457;51.788;6.136;2022-08-19T02:53:48;13.47;;;9.07;;
4885;SDS011;2457;51.788;6.136;2022-08-19T02:56:16;13.57;;;8.63;;
4885;SDS011;2457;51.788;6.136;2022-08-19T02:58:44;11.40;;;8.13;;
4885;SDS011;2457;51.788;6.136;2022-08-19T03:01:18;14.63;;;8.00;;
4885;SDS011;2457;51.788;6.136;2022-08-19T03:03:40;15.77;;;9.13;;
4885;SDS011;2457;51.788;6.136;2022-08-19T03:06:12;13.93;;;8.57;;
4885;SDS011;2457;51.788;6.136;2022-08-19T03:08:40;12.33;;;8.20;;
4885;SDS011;2457;51.788;6.136;2022-08-19T03:11:18;10.13;;;6.83;;
4885;SDS011;2457;51.788;6.136;2022-08-19T03:13:45;14.23;;;8.70;;
4885;SDS011;2457;51.788;6.136;2022-08-19T03:16:15;12.27;;;7.63;;
4885;SDS011;2457;51.788;6.136;2022-08-19T03:18:42;11.60;;;7.13;;
4885;SDS011;2457;51.788;6.136;2022-08-19T03:21:09;12.40;;;7.60;;
4885;SDS011;2457;51.788;6.136;2022-08-19T03:23:38;12.37;;;8.30;;
4885;SDS011;2457;51.788;6.136;2022-08-19T03:26:06;12.43;;;8.53;;
4885;SDS011;2457;51.788;6.136;2022-08-19T03:28:33;13.57;;;9.03;;
4885;SDS011;2457;51.788;6.136;2022-08-19T03:31:02;13.17;;;9.10;;
4885;SDS011;2457;51.788;6.136;2022-08-19T03:33:30;15.00;;;9.30;;
4885;SDS011;2457;51.788;6.136;2022-08-19T03:36:12;14.20;;;8.07;;
4885;SDS011;2457;51.788;6.136;2022-08-19T03:38:40;16.47;;;9.50;;
4885;SDS011;2457;51.788;6.136;2022-08-19T03:41:16;15.93;;;8.60;;
4885;SDS011;2457;51.788;6.136;2022-08-19T03:43:39;15.07;;;8.63;;
4885;SDS011;2457;51.788;6.136;2022-08-19T03:46:08;13.60;;;9.23;;
4885;SDS011;2457;51.788;6.136;2022-08-19T03:48:37;14.30;;;8.90;;
4885;SDS011;2457;51.788;6.136;2022-08-19T03:51:05;13.40;;;8.67;;
4885;SDS011;2457;51.788;6.136;2022-08-19T03:53:33;14.00;;;9.67;;
4885;SDS011;2457;51.788;6.136;2022-08-19T03:56:01;14.40;;;8.87;;
4885;SDS011;2457;51.788;6.136;2022-08-19T03:58:29;12.10;;;8.53;;
4885;SDS011;2457;51.788;6.136;2022-08-19T04:00:56;13.43;;;9.40;;
4885;SDS011;2457;51.788;6.136;2022-08-19T04:03:24;14.30;;;9.43;;
4885;SDS011;2457;51.788;6.136;2022-08-19T04:05:53;12.07;;;8.43;;
4885;SDS011;2457;51.788;6.136;2022-08-19T04:08:20;13.53;;;9.27;;
4885;SDS011;2457;51.788;6.136;2022-08-19T04:10:48;14.77;;;9.67;;
4885;SDS011;2457;51.788;6.136;2022-08-19T04:13:16;14.17;;;8.90;;
4885;SDS011;2457;51.788;6.136;2022-08-19T04:15:44;14.37;;;9.23;;
4885;SDS011;2457;51.788;6.136;2022-08-19T04:18:12;15.67;;;9.20;;
4885;SDS011;2457;51.788;6.136;2022-08-19T04:20:41;15.20;;;9.30;;
4885;SDS011;2457;51.788;6.136;2022-08-19T04:23:08;17.13;;;9.60;;
4885;SDS011;2457;51.788;6.136;2022-08-19T04:25:36;14.57;;;9.93;;
4885;SDS011;2457;51.788;6.136;2022-08-19T04:28:04;16.20;;;10.50;;
4885;SDS011;2457;51.788;6.136;2022-08-19T04:30:36;17.43;;;11.27;;
4885;SDS011;2457;51.788;6.136;2022-08-19T04:33:00;16.87;;;10.60;;
4885;SDS011;2457;51.788;6.136;2022-08-19T04:35:27;16.87;;;11.07;;
4885;SDS011;2457;51.788;6.136;2022-08-19T04:37:55;21.40;;;12.23;;
4885;SDS011;2457;51.788;6.136;2022-08-19T04:40:22;17.03;;;10.80;;
4885;SDS011;2457;51.788;6.136;2022-08-19T04:43:07;18.27;;;11.73;;
4885;SDS011;2457;51.788;6.136;2022-08-19T04:45:35;18.53;;;11.90;;
4885;SDS011;2457;51.788;6.136;2022-08-19T04:48:03;18.10;;;12.20;;
4885;SDS011;2457;51.788;6.136;2022-08-19T04:50:31;15.57;;;9.50;;
4885;SDS011;2457;51.788;6.136;2022-08-19T04:53:00;17.50;;;10.33;;
4885;SDS011;2457;51.788;6.136;2022-08-19T04:55:27;15.00;;;9.70;;
4885;SDS011;2457;51.788;6.136;2022-08-19T04:57:54;15.13;;;10.27;;
4885;SDS011;2457;51.788;6.136;2022-08-19T05:00:22;18.07;;;10.70;;
4885;SDS011;2457;51.788;6.136;2022-08-19T05:02:49;18.70;;;10.87;;
4885;SDS011;2457;51.788;6.136;2022-08-19T05:05:16;21.60;;;12.07;;
4885;SDS011;2457;51.788;6.136;2022-08-19T05:07:44;16.50;;;10.67;;
4885;SDS011;2457;51.788;6.136;2022-08-19T05:10:11;16.70;;;11.43;;
4885;SDS011;2457;51.788;6.136;2022-08-19T05:12:38;15.00;;;9.80;;
4885;SDS011;2457;51.788;6.136;2022-08-19T05:15:06;18.23;;;12.30;;
4885;SDS011;2457;51.788;6.136;2022-08-19T05:17:34;22.07;;;10.57;;
4885;SDS011;2457;51.788;6.136;2022-08-19T05:20:03;19.20;;;13.13;;
4885;SDS011;2457;51.788;6.136;2022-08-19T05:22:49;23.10;;;14.20;;
4885;SDS011;2457;51.788;6.136;2022-08-19T05:25:18;27.47;;;13.60;;
4885;SDS011;2457;51.788;6.136;2022-08-19T05:27:45;23.70;;;14.50;;
4885;SDS011;2457;51.788;6.136;2022-08-19T05:30:13;22.87;;;14.43;;
4885;SDS011;2457;51.788;6.136;2022-08-19T05:32:41;19.93;;;12.93;;
4885;SDS011;2457;51.788;6.136;2022-08-19T05:35:09;21.10;;;13.37;;
4885;SDS011;2457;51.788;6.136;2022-08-19T05:37:37;20.63;;;12.37;;
4885;SDS011;2457;51.788;6.136;2022-08-19T05:40:06;18.57;;;12.47;;
4885;SDS011;2457;51.788;6.136;2022-08-19T05:42:33;24.53;;;12.57;;
4885;SDS011;2457;51.788;6.136;2022-08-19T05:45:01;20.77;;;13.57;;
4885;SDS011;2457;51.788;6.136;2022-08-19T05:47:28;18.67;;;11.63;;
4885;SDS011;2457;51.788;6.136;2022-08-19T05:49:55;20.33;;;11.70;;
4885;SDS011;2457;51.788;6.136;2022-08-19T05:52:23;21.93;;;12.80;;
4885;SDS011;2457;51.788;6.136;2022-08-19T05:54:50;18.47;;;11.03;;
4885;SDS011;2457;51.788;6.136;2022-08-19T05:57:18;19.20;;;11.63;;
4885;SDS011;2457;51.788;6.136;2022-08-19T05:59:45;19.47;;;12.70;;
4885;SDS011;2457;51.788;6.136;2022-08-19T06:02:14;19.07;;;11.57;;
4885;SDS011;2457;51.788;6.136;2022-08-19T06:04:41;20.20;;;12.10;;
4885;SDS011;2457;51.788;6.136;2022-08-19T06:07:11;20.70;;;12.50;;
4885;SDS011;2457;51.788;6.136;2022-08-19T06:09:39;19.20;;;12.40;;
4885;SDS011;2457;51.788;6.136;2022-08-19T06:12:06;17.93;;;11.70;;
4885;SDS011;2457;51.788;6.136;2022-08-19T06:14:34;20.97;;;12.87;;
4885;SDS011;2457;51.788;6.136;2022-08-19T06:17:01;21.10;;;13.53;;
4885;SDS011;2457;51.788;6.136;2022-08-19T06:19:29;23.00;;;14.97;;
4885;SDS011;2457;51.788;6.136;2022-08-19T06:21:58;23.80;;;14.77;;
4885;SDS011;2457;51.788;6.136;2022-08-19T06:24:29;21.47;;;13.43;;
4885;SDS011;2457;51.788;6.136;2022-08-19T06:26:56;22.07;;;12.63;;
4885;SDS011;2457;51.788;6.136;2022-08-19T06:29:25;23.17;;;14.07;;
4885;SDS011;2457;51.788;6.136;2022-08-19T06:31:54;25.83;;;13.07;;
4885;SDS011;2457;51.788;6.136;2022-08-19T06:34:22;22.23;;;13.70;;
4885;SDS011;2457;51.788;6.136;2022-08-19T06:36:50;21.17;;;12.73;;
4885;SDS011;2457;51.788;6.136;2022-08-19T06:39:22;23.27;;;13.13;;
4885;SDS011;2457;51.788;6.136;2022-08-19T06:41:52;21.43;;;12.80;;
4885;SDS011;2457;51.788;6.136;2022-08-19T06:44:20;23.93;;;12.87;;
4885;SDS011;2457;51.788;6.136;2022-08-19T06:46:48;22.67;;;12.90;;
4885;SDS011;2457;51.788;6.136;2022-08-19T06:49:18;21.27;;;12.67;;
4885;SDS011;2457;51.788;6.136;2022-08-19T06:51:46;24.50;;;11.87;;
4885;SDS011;2457;51.788;6.136;2022-08-19T06:54:14;27.77;;;13.40;;
4885;SDS011;2457;51.788;6.136;2022-08-19T06:56:41;19.37;;;12.77;;
4885;SDS011;2457;51.788;6.136;2022-08-19T06:59:12;24.03;;;13.20;;
4885;SDS011;2457;51.788;6.136;2022-08-19T07:01:40;24.10;;;14.63;;
4885;SDS011;2457;51.788;6.136;2022-08-19T07:04:07;27.50;;;16.57;;
4885;SDS011;2457;51.788;6.136;2022-08-19T07:06:35;28.87;;;16.10;;
4885;SDS011;2457;51.788;6.136;2022-08-19T07:09:05;28.10;;;16.90;;
4885;SDS011;2457;51.788;6.136;2022-08-19T07:11:33;32.80;;;17.50;;
4885;SDS011;2457;51.788;6.136;2022-08-19T07:14:03;39.33;;;19.70;;
4885;SDS011;2457;51.788;6.136;2022-08-19T07:16:32;39.40;;;20.20;;
4885;SDS011;2457;51.788;6.136;2022-08-19T07:18:59;36.83;;;21.00;;
4885;SDS011;2457;51.788;6.136;2022-08-19T07:21:27;48.17;;;23.70;;
4885;SDS011;2457;51.788;6.136;2022-08-19T07:23:55;53.10;;;25.40;;
4885;SDS011;2457;51.788;6.136;2022-08-19T07:26:24;50.80;;;25.07;;
4885;SDS011;2457;51.788;6.136;2022-08-19T07:28:51;46.93;;;22.17;;
4885;SDS011;2457;51.788;6.136;2022-08-19T07:31:20;47.90;;;23.10;;
4885;SDS011;2457;51.788;6.136;2022-08-19T07:33:48;43.87;;;23.37;;
4885;SDS011;2457;51.788;6.136;2022-08-19T07:36:17;52.40;;;24.50;;
4885;SDS011;2457;51.788;6.136;2022-08-19T07:38:46;46.63;;;22.63;;
4885;SDS011;2457;51.788;6.136;2022-08-19T07:41:16;46.60;;;23.13;;
4885;SDS011;2457;51.788;6.136;2022-08-19T07:43:43;44.43;;;22.60;;
4885;SDS011;2457;51.788;6.136;2022-08-19T07:46:10;44.07;;;22.53;;
4885;SDS011;2457;51.788;6.136;2022-08-19T07:48:39;45.87;;;23.23;;
4885;SDS011;2457;51.788;6.136;2022-08-19T07:51:07;49.30;;;23.23;;
4885;SDS011;2457;51.788;6.136;2022-08-19T07:53:37;42.23;;;22.23;;
4885;SDS011;2457;51.788;6.136;2022-08-19T07:56:05;40.07;;;21.03;;
4885;SDS011;2457;51.788;6.136;2022-08-19T07:58:34;46.23;;;23.20;;
4885;SDS011;2457;51.788;6.136;2022-08-19T08:01:01;43.97;;;23.00;;
4885;SDS011;2457;51.788;6.136;2022-08-19T08:03:29;40.20;;;22.13;;
4885;SDS011;2457;51.788;6.136;2022-08-19T08:06:15;43.13;;;21.93;;
4885;SDS011;2457;51.788;6.136;2022-08-19T08:09:02;40.70;;;21.93;;
4885;SDS011;2457;51.788;6.136;2022-08-19T08:11:51;34.17;;;19.70;;
4885;SDS011;2457;51.788;6.136;2022-08-19T08:14:11;42.60;;;23.43;;
4885;SDS011;2457;51.788;6.136;2022-08-19T08:16:38;38.93;;;21.20;;
4885;SDS011;2457;51.788;6.136;2022-08-19T08:19:06;36.60;;;21.37;;
4885;SDS011;2457;51.788;6.136;2022-08-19T08:21:34;35.50;;;21.90;;
4885;SDS011;2457;51.788;6.136;2022-08-19T08:24:01;35.13;;;19.30;;
4885;SDS011;2457;51.788;6.136;2022-08-19T08:26:28;40.80;;;20.80;;
4885;SDS011;2457;51.788;6.136;2022-08-19T08:28:55;34.23;;;20.60;;
4885;SDS011;2457;51.788;6.136;2022-08-19T08:31:23;39.73;;;20.30;;
4885;SDS011;2457;51.788;6.136;2022-08-19T08:33:50;35.50;;;21.13;;
4885;SDS011;2457;51.788;6.136;2022-08-19T08:36:17;41.00;;;20.53;;
4885;SDS011;2457;51.788;6.136;2022-08-19T08:38:45;37.90;;;18.57;;
4885;SDS011;2457;51.788;6.136;2022-08-19T08:41:18;29.17;;;15.60;;
4885;SDS011;2457;51.788;6.136;2022-08-19T08:43:46;30.03;;;17.03;;
4885;SDS011;2457;51.788;6.136;2022-08-19T08:48:54;28.93;;;15.37;;
4885;SDS011;2457;51.788;6.136;2022-08-19T08:51:25;26.17;;;14.77;;
4885;SDS011;2457;51.788;6.136;2022-08-19T08:53:51;30.97;;;15.97;;
4885;SDS011;2457;51.788;6.136;2022-08-19T08:56:19;24.10;;;12.33;;
4885;SDS011;2457;51.788;6.136;2022-08-19T09:01:24;22.00;;;12.60;;
4885;SDS011;2457;51.788;6.136;2022-08-19T09:03:51;23.37;;;12.13;;
4885;SDS011;2457;51.788;6.136;2022-08-19T09:06:24;21.97;;;12.77;;
4885;SDS011;2457;51.788;6.136;2022-08-19T09:16:29;22.80;;;12.63;;
4885;SDS011;2457;51.788;6.136;2022-08-19T09:18:58;20.30;;;10.80;;
4885;SDS011;2457;51.788;6.136;2022-08-19T09:21:25;24.13;;;12.10;;
4885;SDS011;2457;51.788;6.136;2022-08-19T09:23:53;22.53;;;11.37;;
4885;SDS011;2457;51.788;6.136;2022-08-19T09:26:22;16.10;;;9.30;;
4885;SDS011;2457;51.788;6.136;2022-08-19T09:28:50;16.20;;;8.97;;
4885;SDS011;2457;51.788;6.136;2022-08-19T09:31:20;14.10;;;7.70;;
4885;SDS011;2457;51.788;6.136;2022-08-19T09:33:47;17.40;;;9.50;;
4885;SDS011;2457;51.788;6.136;2022-08-19T09:36:16;14.83;;;8.33;;
4885;SDS011;2457;51.788;6.136;2022-08-19T09:38:44;15.07;;;8.80;;
4885;SDS011;2457;51.788;6.136;2022-08-19T09:41:13;18.73;;;6.10;;
4885;SDS011;2457;51.788;6.136;2022-08-19T09:43:42;13.03;;;6.47;;
4885;SDS011;2457;51.788;6.136;2022-08-19T09:46:09;11.30;;;6.47;;
4885;SDS011;2457;51.788;6.136;2022-08-19T09:48:38;13.50;;;7.23;;
4885;SDS011;2457;51.788;6.136;2022-08-19T09:51:07;13.80;;;6.90;;
4885;SDS011;2457;51.788;6.136;2022-08-19T09:53:35;14.30;;;6.70;;
4885;SDS011;2457;51.788;6.136;2022-08-19T09:56:02;19.37;;;9.00;;
4885;SDS011;2457;51.788;6.136;2022-08-19T09:58:30;14.30;;;7.23;;
4885;SDS011;2457;51.788;6.136;2022-08-19T10:00:58;16.53;;;6.80;;
4885;SDS011;2457;51.788;6.136;2022-08-19T10:03:26;15.00;;;7.30;;
4885;SDS011;2457;51.788;6.136;2022-08-19T10:05:53;13.80;;;8.20;;
4885;SDS011;2457;51.788;6.136;2022-08-19T10:08:22;13.10;;;6.53;;
4885;SDS011;2457;51.788;6.136;2022-08-19T10:10:51;14.13;;;6.80;;
4885;SDS011;2457;51.788;6.136;2022-08-19T10:13:19;16.10;;;8.00;;
4885;SDS011;2457;51.788;6.136;2022-08-19T10:15:55;13.57;;;7.13;;
4885;SDS011;2457;51.788;6.136;2022-08-19T10:18:24;15.90;;;7.77;;
4885;SDS011;2457;51.788;6.136;2022-08-19T10:20:51;14.00;;;7.47;;
4885;SDS011;2457;51.788;6.136;2022-08-19T10:23:20;17.87;;;10.17;;
4885;SDS011;2457;51.788;6.136;2022-08-19T10:25:47;19.17;;;9.33;;
4885;SDS011;2457;51.788;6.136;2022-08-19T10:28:15;18.50;;;8.90;;
4885;SDS011;2457;51.788;6.136;2022-08-19T10:30:43;17.17;;;9.50;;
4885;SDS011;2457;51.788;6.136;2022-08-19T10:33:15;18.90;;;11.50;;
4885;SDS011;2457;51.788;6.136;2022-08-19T10:35:40;19.50;;;10.70;;
4885;SDS011;2457;51.788;6.136;2022-08-19T10:38:07;15.53;;;9.30;;
4885;SDS011;2457;51.788;6.136;2022-08-19T10:40:34;15.57;;;9.83;;
4885;SDS011;2457;51.788;6.136;2022-08-19T10:43:03;15.43;;;8.53;;
4885;SDS011;2457;51.788;6.136;2022-08-19T10:45:31;17.03;;;8.70;;
4885;SDS011;2457;51.788;6.136;2022-08-19T10:47:58;18.23;;;8.33;;
4885;SDS011;2457;51.788;6.136;2022-08-19T10:50:25;21.93;;;12.47;;
4885;SDS011;2457;51.788;6.136;2022-08-19T10:53:10;24.23;;;12.40;;
4885;SDS011;2457;51.788;6.136;2022-08-19T10:55:38;22.40;;;11.67;;
4885;SDS011;2457;51.788;6.136;2022-08-19T10:58:23;21.47;;;12.17;;
4885;SDS011;2457;51.788;6.136;2022-08-19T11:00:55;22.20;;;12.80;;
4885;SDS011;2457;51.788;6.136;2022-08-19T11:03:24;20.40;;;12.33;;
4885;SDS011;2457;51.788;6.136;2022-08-19T11:06:06;25.83;;;12.77;;
4885;SDS011;2457;51.788;6.136;2022-08-19T11:08:32;22.83;;;13.10;;
4885;SDS011;2457;51.788;6.136;2022-08-19T11:11:00;24.30;;;12.20;;
4885;SDS011;2457;51.788;6.136;2022-08-19T11:13:29;23.90;;;13.27;;
4885;SDS011;2457;51.788;6.136;2022-08-19T11:16:01;23.50;;;13.30;;
4885;SDS011;2457;51.788;6.136;2022-08-19T11:18:26;26.00;;;13.53;;
4885;SDS011;2457;51.788;6.136;2022-08-19T11:20:53;20.90;;;12.40;;
4885;SDS011;2457;51.788;6.136;2022-08-19T11:23:21;21.00;;;11.10;;
4885;SDS011;2457;51.788;6.136;2022-08-19T11:25:48;23.07;;;12.60;;
4885;SDS011;2457;51.788;6.136;2022-08-19T11:28:16;19.30;;;11.20;;
4885;SDS011;2457;51.788;6.136;2022-08-19T11:30:43;17.20;;;9.67;;
4885;SDS011;2457;51.788;6.136;2022-08-19T11:33:10;20.87;;;10.87;;
4885;SDS011;2457;51.788;6.136;2022-08-19T11:35:38;20.07;;;12.07;;
4885;SDS011;2457;51.788;6.136;2022-08-19T11:38:07;15.90;;;9.07;;
4885;SDS011;2457;51.788;6.136;2022-08-19T11:40:34;22.30;;;12.07;;
4885;SDS011;2457;51.788;6.136;2022-08-19T11:43:02;17.60;;;10.57;;
4885;SDS011;2457;51.788;6.136;2022-08-19T11:45:32;23.13;;;11.93;;
4885;SDS011;2457;51.788;6.136;2022-08-19T11:47:59;17.90;;;11.20;;
4885;SDS011;2457;51.788;6.136;2022-08-19T11:50:27;19.90;;;10.07;;
4885;SDS011;2457;51.788;6.136;2022-08-19T11:52:55;30.90;;;11.40;;
4885;SDS011;2457;51.788;6.136;2022-08-19T11:55:28;22.73;;;13.30;;
4885;SDS011;2457;51.788;6.136;2022-08-19T11:57:52;20.93;;;11.10;;
4885;SDS011;2457;51.788;6.136;2022-08-19T12:00:19;22.83;;;10.23;;
4885;SDS011;2457;51.788;6.136;2022-08-19T12:02:47;15.77;;;9.40;;
4885;SDS011;2457;51.788;6.136;2022-08-19T12:05:15;20.20;;;11.23;;
4885;SDS011;2457;51.788;6.136;2022-08-19T12:07:42;21.80;;;9.70;;
4885;SDS011;2457;51.788;6.136;2022-08-19T12:10:10;21.30;;;10.70;;
4885;SDS011;2457;51.788;6.136;2022-08-19T12:12:37;19.07;;;9.53;;
4885;SDS011;2457;51.788;6.136;2022-08-19T12:15:06;17.70;;;9.10;;
4885;SDS011;2457;51.788;6.136;2022-08-19T12:17:34;15.97;;;9.37;;
4885;SDS011;2457;51.788;6.136;2022-08-19T12:20:02;15.37;;;8.70;;
4885;SDS011;2457;51.788;6.136;2022-08-19T12:22:29;18.77;;;10.30;;
4885;SDS011;2457;51.788;6.136;2022-08-19T12:24:56;19.20;;;10.40;;
4885;SDS011;2457;51.788;6.136;2022-08-19T12:27:24;15.97;;;8.90;;
4885;SDS011;2457;51.788;6.136;2022-08-19T12:29:51;17.53;;;9.30;;
4885;SDS011;2457;51.788;6.136;2022-08-19T12:32:19;17.17;;;8.90;;
4885;SDS011;2457;51.788;6.136;2022-08-19T12:34:47;17.67;;;8.13;;
4885;SDS011;2457;51.788;6.136;2022-08-19T12:37:14;17.17;;;8.10;;
4885;SDS011;2457;51.788;6.136;2022-08-19T12:39:43;15.73;;;9.00;;
4885;SDS011;2457;51.788;6.136;2022-08-19T12:42:11;15.30;;;7.93;;
4885;SDS011;2457;51.788;6.136;2022-08-19T12:44:40;17.03;;;9.07;;
4885;SDS011;2457;51.788;6.136;2022-08-19T12:47:11;22.40;;;7.63;;
4885;SDS011;2457;51.788;6.136;2022-08-19T12:49:40;16.43;;;9.37;;
4885;SDS011;2457;51.788;6.136;2022-08-19T12:52:08;10.90;;;6.27;;
4885;SDS011;2457;51.788;6.136;2022-08-19T12:54:36;14.73;;;7.27;;
4885;SDS011;2457;51.788;6.136;2022-08-19T12:57:06;15.63;;;8.33;;
4885;SDS011;2457;51.788;6.136;2022-08-19T12:59:35;13.97;;;8.00;;
4885;SDS011;2457;51.788;6.136;2022-08-19T13:02:03;16.33;;;8.20;;
4885;SDS011;2457;51.788;6.136;2022-08-19T13:04:32;14.20;;;7.03;;
4885;SDS011;2457;51.788;6.136;2022-08-19T13:07:01;10.53;;;6.20;;
4885;SDS011;2457;51.788;6.136;2022-08-19T13:09:29;16.03;;;8.53;;
4885;SDS011;2457;51.788;6.136;2022-08-19T13:11:56;17.07;;;9.70;;
4885;SDS011;2457;51.788;6.136;2022-08-19T13:14:23;14.77;;;8.97;;
4885;SDS011;2457;51.788;6.136;2022-08-19T13:16:51;15.43;;;8.83;;
4885;SDS011;2457;51.788;6.136;2022-08-19T13:19:18;15.10;;;7.50;;
4885;SDS011;2457;51.788;6.136;2022-08-19T13:21:49;15.97;;;7.93;;
4885;SDS011;2457;51.788;6.136;2022-08-19T13:24:16;16.57;;;8.17;;
4885;SDS011;2457;51.788;6.136;2022-08-19T13:26:44;22.63;;;10.37;;
4885;SDS011;2457;51.788;6.136;2022-08-19T13:29:11;12.67;;;7.90;;
4885;SDS011;2457;51.788;6.136;2022-08-19T13:31:57;17.03;;;8.13;;
4885;SDS011;2457;51.788;6.136;2022-08-19T13:34:43;15.60;;;7.70;;
4885;SDS011;2457;51.788;6.136;2022-08-19T13:37:12;14.27;;;8.57;;
4885;SDS011;2457;51.788;6.136;2022-08-19T13:39:39;19.23;;;9.40;;
4885;SDS011;2457;51.788;6.136;2022-08-19T13:42:07;15.47;;;9.33;;
4885;SDS011;2457;51.788;6.136;2022-08-19T13:44:35;20.97;;;7.73;;
4885;SDS011;2457;51.788;6.136;2022-08-19T13:47:03;14.83;;;8.30;;
4885;SDS011;2457;51.788;6.136;2022-08-19T13:49:33;14.83;;;9.83;;
4885;SDS011;2457;51.788;6.136;2022-08-19T13:52:03;24.10;;;10.10;;
4885;SDS011;2457;51.788;6.136;2022-08-19T13:54:30;14.17;;;8.33;;
4885;SDS011;2457;51.788;6.136;2022-08-19T13:56:57;29.03;;;10.63;;
4885;SDS011;2457;51.788;6.136;2022-08-19T13:59:24;16.63;;;8.03;;
4885;SDS011;2457;51.788;6.136;2022-08-19T14:01:52;15.50;;;9.00;;
4885;SDS011;2457;51.788;6.136;2022-08-19T14:04:19;14.73;;;8.77;;
4885;SDS011;2457;51.788;6.136;2022-08-19T14:06:46;14.80;;;9.07;;
4885;SDS011;2457;51.788;6.136;2022-08-19T14:09:14;15.90;;;8.80;;
4885;SDS011;2457;51.788;6.136;2022-08-19T14:11:41;12.83;;;8.30;;
4885;SDS011;2457;51.788;6.136;2022-08-19T14:14:08;15.40;;;8.97;;
4885;SDS011;2457;51.788;6.136;2022-08-19T14:16:36;18.77;;;11.10;;
4885;SDS011;2457;51.788;6.136;2022-08-19T14:19:03;18.30;;;9.67;;
4885;SDS011;2457;51.788;6.136;2022-08-19T14:21:30;23.23;;;10.87;;
4885;SDS011;2457;51.788;6.136;2022-08-19T14:23:57;19.90;;;10.40;;
4885;SDS011;2457;51.788;6.136;2022-08-19T14:26:25;16.53;;;9.77;;
4885;SDS011;2457;51.788;6.136;2022-08-19T14:28:53;16.50;;;9.30;;
4885;SDS011;2457;51.788;6.136;2022-08-19T14:31:21;16.27;;;8.87;;
4885;SDS011;2457;51.788;6.136;2022-08-19T14:33:49;20.53;;;10.27;;
4885;SDS011;2457;51.788;6.136;2022-08-19T14:36:17;18.87;;;10.80;;
4885;SDS011;2457;51.788;6.136;2022-08-19T14:38:45;17.23;;;9.73;;
4885;SDS011;2457;51.788;6.136;2022-08-19T14:41:20;18.63;;;9.80;;
4885;SDS011;2457;51.788;6.136;2022-08-19T14:43:44;16.27;;;9.73;;
4885;SDS011;2457;51.788;6.136;2022-08-19T14:46:13;12.73;;;6.77;;
4885;SDS011;2457;51.788;6.136;2022-08-19T14:48:41;17.90;;;9.27;;
4885;SDS011;2457;51.788;6.136;2022-08-19T14:51:09;20.50;;;9.67;;
4885;SDS011;2457;51.788;6.136;2022-08-19T14:53:36;18.43;;;9.50;;
4885;SDS011;2457;51.788;6.136;2022-08-19T14:56:08;13.63;;;8.47;;
4885;SDS011;2457;51.788;6.136;2022-08-19T14:58:35;16.53;;;9.90;;
4885;SDS011;2457;51.788;6.136;2022-08-19T15:01:03;15.10;;;8.67;;
4885;SDS011;2457;51.788;6.136;2022-08-19T15:03:30;20.10;;;10.50;;
4885;SDS011;2457;51.788;6.136;2022-08-19T15:05:59;22.97;;;10.33;;
4885;SDS011;2457;51.788;6.136;2022-08-19T15:08:27;16.90;;;8.93;;
4885;SDS011;2457;51.788;6.136;2022-08-19T15:10:55;21.07;;;9.23;;
4885;SDS011;2457;51.788;6.136;2022-08-19T15:13:23;16.03;;;8.47;;
4885;SDS011;2457;51.788;6.136;2022-08-19T15:15:50;21.37;;;8.60;;